Time;durP1;ratioP1;P1;durP2;ratioP2;P2;SDS_P1;SDS_P2;PMS_P1;PMS_P2;Temp;Humidity;BMP_temperature;BMP_pressure;BME280_temperature;BME280_humidity;BME280_pressure;Samples;Min_cycle;Max_cycle;Signal;HPM_P1;HPM_P2
2023/04/08 00:00:13;;;;;;;46.25;13.75;;;;;;;7.73;100.00;102270.72;5265129;28;20026;-73
2023/04/08 00:02:43;;;;;;;34.50;12.88;;;;;;;7.72;100.00;102272.56;5268731;28;20116;-72
2023/04/08 00:05:14;;;;;;;46.05;15.43;;;;;;;7.72;100.00;102272.56;5264212;28;20028;-73
2023/04/08 00:07:45;;;;;;;40.45;12.63;;;;;;;7.71;100.00;102276.19;5264119;28;20047;-73
2023/04/08 00:10:15;;;;;;;39.15;13.25;;;;;;;7.74;100.00;102275.13;5265307;28;20024;-73
2023/04/08 00:12:47;;;;;;;38.38;13.40;;;;;;;7.73;100.00;102273.41;5268197;28;20019;-73
2023/04/08 00:15:17;;;;;;;38.25;13.60;;;;;;;7.72;100.00;102267.22;5275577;28;20024;-73
2023/04/08 00:17:48;;;;;;;33.75;13.55;;;;;;;7.72;100.00;102263.69;5277268;28;20034;-73
2023/04/08 00:20:19;;;;;;;39.35;14.02;;;;;;;7.70;100.00;102263.81;5264432;28;20519;-73
2023/04/08 00:22:49;;;;;;;38.13;13.32;;;;;;;7.71;100.00;102267.34;5276925;28;20024;-73
2023/04/08 00:25:20;;;;;;;39.35;14.38;;;;;;;7.71;100.00;102257.50;5264783;28;20500;-73
2023/04/08 00:27:50;;;;;;;35.15;13.77;;;;;;;7.72;100.00;102263.69;5264239;28;20587;-73
2023/04/08 00:30:21;;;;;;;38.70;16.08;;;;;;;7.69;100.00;102263.94;5263307;28;20024;-72
2023/04/08 00:32:51;;;;;;;36.80;16.25;;;;;;;7.69;100.00;102263.94;5264332;28;20028;-73
2023/04/08 00:35:22;;;;;;;45.28;15.60;;;;;;;7.68;100.00;102264.88;5264571;28;20031;-73
2023/04/08 00:37:52;;;;;;;43.25;16.20;;;;;;;7.68;100.00;102262.19;5262892;28;20106;-73
2023/04/08 00:40:23;;;;;;;41.83;15.02;;;;;;;7.67;100.00;102272.03;5264448;28;20024;-73
2023/04/08 00:42:56;;;;;;;51.67;15.13;;;;;;;7.65;100.00;102262.44;5264429;28;20024;-73
2023/04/08 00:45:27;;;;;;;40.65;15.98;;;;;;;7.66;100.00;102273.00;5263063;28;20032;-73
2023/04/08 00:47:57;;;;;;;32.63;13.80;;;;;;;7.65;100.00;102271.31;5277173;28;20468;-72
2023/04/08 00:50:28;;;;;;;46.13;15.15;;;;;;;7.64;100.00;102269.63;5285573;28;20055;-73
2023/04/08 00:52:58;;;;;;;36.40;13.95;;;;;;;7.65;100.00;102273.13;5283409;28;20287;-73
2023/04/08 00:55:29;;;;;;;41.17;15.00;;;;;;;7.65;100.00;102283.81;5264458;28;20392;-72
2023/04/08 00:57:59;;;;;;;31.83;13.45;;;;;;;7.64;100.00;102280.28;5276850;28;20460;-73
2023/04/08 01:00:30;;;;;;;44.88;14.32;;;;;;;7.63;100.00;102275.03;5264657;28;20532;-73
2023/04/08 01:03:25;;;;;;;36.42;13.35;;;;;;;7.62;100.00;102279.53;5266828;28;20024;-73
2023/04/08 01:06:17;;;;;;;38.97;13.98;;;;;;;7.62;100.00;102274.19;5272127;28;20027;-73
2023/04/08 01:08:50;;;;;;;38.72;14.43;;;;;;;7.62;100.00;102276.00;5275379;28;20028;-73
2023/04/08 01:11:21;;;;;;;41.40;14.13;;;;;;;7.62;100.00;102281.34;5267774;28;20056;-73
2023/04/08 01:14:20;;;;;;;39.25;14.20;;;;;;;7.63;100.00;102280.38;5264433;28;20028;-73
2023/04/08 01:17:11;;;;;;;39.95;14.18;;;;;;;7.62;100.00;102281.34;5263904;28;20031;-73
2023/04/08 01:19:43;;;;;;;48.88;13.68;;;;;;;7.60;100.00;102280.63;5264974;28;20031;-73
2023/04/08 01:22:26;;;;;;;37.70;14.48;;;;;;;7.60;100.00;102283.31;5277526;28;20079;-73
2023/04/08 01:25:20;;;;;;;40.80;13.63;;;;;;;7.62;100.00;102286.69;5273363;28;20028;-73
2023/04/08 01:28:14;;;;;;;37.75;13.60;;;;;;;7.61;100.00;102277.00;5263336;28;20071;-73
2023/04/08 01:30:46;;;;;;;35.97;13.25;;;;;;;7.64;100.00;102282.13;5268363;28;20447;-72
2023/04/08 01:33:18;;;;;;;34.05;13.13;;;;;;;7.67;100.00;102285.41;5268676;28;20064;-72
2023/04/08 01:36:00;;;;;;;36.30;14.18;;;;;;;7.67;100.00;102280.06;5269135;28;20024;-73
2023/04/08 01:38:32;;;;;;;37.00;12.35;;;;;;;7.67;100.00;102288.06;5267252;28;20102;-73
2023/04/08 01:41:04;;;;;;;44.33;14.32;;;;;;;7.67;100.00;102284.53;5267800;28;20165;-73
2023/04/08 01:43:35;;;;;;;32.13;13.00;;;;;;;7.67;100.00;102288.06;5268147;28;20024;-73
2023/04/08 01:46:08;;;;;;;35.67;13.40;;;;;;;7.68;100.00;102281.78;5268816;28;20128;-73
2023/04/08 01:48:39;;;;;;;41.10;13.25;;;;;;;7.67;100.00;102287.22;5287128;28;20023;-73
2023/04/08 01:51:10;;;;;;;45.83;14.15;;;;;;;7.65;100.00;102289.16;5289856;28;20027;-73
2023/04/08 01:53:43;;;;;;;42.03;14.65;;;;;;;7.65;100.00;102294.50;5269622;28;20110;-73
2023/04/08 01:56:15;;;;;;;44.47;14.23;;;;;;;7.64;100.00;102284.78;5268000;28;20057;-73
2023/04/08 01:58:49;;;;;;;38.92;14.85;;;;;;;7.61;100.00;102288.53;5267278;28;20031;-72
2023/04/08 02:01:24;;;;;;;46.17;15.38;;;;;;;7.60;100.00;102286.81;5268531;28;20508;-73
2023/04/08 02:03:57;;;;;;;37.80;16.20;;;;;;;7.61;100.00;102293.00;5267147;28;20371;-73
2023/04/08 02:06:28;;;;;;;40.92;15.18;;;;;;;7.58;100.00;102286.09;5267663;28;20302;-72
2023/04/08 02:09:00;;;;;;;38.17;14.85;;;;;;;7.56;100.00;102290.69;5267420;28;20028;-73
2023/04/08 02:11:31;;;;;;;48.00;15.88;;;;;;;7.58;100.00;102295.91;5267025;28;20088;-73
2023/04/08 02:14:01;;;;;;;34.42;15.18;;;;;;;7.61;100.00;102293.00;5281846;28;20090;-73
2023/04/08 02:16:41;;;;;;;37.05;15.13;;;;;;;7.60;100.00;102289.50;5268104;28;20579;-73
2023/04/08 02:19:17;;;;;;;43.25;14.65;;;;;;;7.59;100.00;102286.94;5266989;28;20085;-73
2023/04/08 02:21:54;;;;;;;40.83;14.55;;;;;;;7.57;100.00;102286.19;5268948;28;20035;-73
2023/04/08 02:24:26;;;;;;;39.10;13.05;;;;;;;7.58;100.00;102290.56;5267747;28;20044;-73
2023/04/08 02:26:59;;;;;;;43.00;15.10;;;;;;;7.56;100.00;102292.50;5283275;28;20035;-73
2023/04/08 02:29:32;;;;;;;47.50;15.27;;;;;;;7.57;100.00;102288.84;5274731;28;20106;-73
2023/04/08 02:32:04;;;;;;;35.38;15.02;;;;;;;7.55;100.00;102290.78;5287857;28;20476;-73
2023/04/08 02:34:36;;;;;;;38.70;13.20;;;;;;;7.54;100.00;102292.63;5268059;28;20030;-73
2023/04/08 02:37:08;;;;;;;39.13;13.55;;;;;;;7.53;100.00;102290.91;5267329;28;20110;-73
2023/04/08 02:39:38;;;;;;;36.28;13.70;;;;;;;7.51;100.00;102291.00;5267649;28;20388;-73
2023/04/08 02:42:09;;;;;;;42.88;14.25;;;;;;;7.51;100.00;102292.81;5267087;28;20036;-73
2023/04/08 02:44:39;;;;;;;37.40;14.10;;;;;;;7.52;100.00;102292.72;5267733;28;20492;-73
2023/04/08 02:47:10;;;;;;;40.30;15.10;;;;;;;7.51;100.00;102295.50;5267285;28;20035;-73
2023/04/08 02:49:40;;;;;;;53.65;15.98;;;;;;;7.51;100.00;102295.50;5267482;28;20019;-73
2023/04/08 02:52:11;;;;;;;36.65;13.30;;;;;;;7.51;100.00;102298.16;5266365;28;20480;-73
2023/04/08 02:54:41;;;;;;;44.00;15.82;;;;;;;7.51;100.00;102301.69;5266941;28;20415;-73
2023/04/08 02:57:11;;;;;;;48.17;15.68;;;;;;;7.52;100.00;102307.88;5266039;28;20107;-73
2023/04/08 02:59:42;;;;;;;35.90;15.15;;;;;;;7.53;100.00;102301.59;5267162;28;20102;-73
2023/04/08 03:02:12;;;;;;;40.45;15.27;;;;;;;7.55;100.00;102314.84;5267350;28;20028;-72
2023/04/08 03:04:43;;;;;;;43.97;16.00;;;;;;;7.56;100.00;102305.84;5267015;28;20028;-73
2023/04/08 03:07:13;;;;;;;42.83;14.75;;;;;;;7.58;100.00;102310.13;5265484;28;20031;-73
2023/04/08 03:09:44;;;;;;;41.13;15.35;;;;;;;7.57;100.00;102316.41;5265935;28;20069;-73
2023/04/08 03:12:14;;;;;;;40.83;13.70;;;;;;;7.56;100.00;102305.84;5267317;28;20027;-73
2023/04/08 03:14:45;;;;;;;40.75;14.35;;;;;;;7.54;100.00;102316.66;5280608;28;20377;-73
2023/04/08 03:17:16;;;;;;;40.92;14.95;;;;;;;7.55;100.00;102312.16;5267312;28;20024;-73
2023/04/08 03:19:46;;;;;;;47.53;15.73;;;;;;;7.56;100.00;102309.38;5266663;28;20103;-73
2023/04/08 03:22:18;;;;;;;38.92;17.48;;;;;;;7.57;100.00;102304.88;5266471;28;20031;-73
2023/04/08 03:24:48;;;;;;;45.80;16.63;;;;;;;7.58;100.00;102306.56;5266828;28;20032;-73
2023/04/08 03:27:19;;;;;;;52.22;16.65;;;;;;;7.57;100.00;102305.72;5279867;28;20032;-73
2023/04/08 03:29:49;;;;;;;46.45;16.90;;;;;;;7.58;100.00;102309.25;5266395;28;20047;-73
2023/04/08 03:32:20;;;;;;;43.63;16.50;;;;;;;7.57;100.00;102304.88;5266660;28;20107;-73
2023/04/08 03:34:50;;;;;;;41.47;16.20;;;;;;;7.58;100.00;102303.91;5266475;28;20031;-73
2023/04/08 03:37:21;;;;;;;47.70;16.50;;;;;;;7.58;100.00;102318.16;5265904;28;20028;-73
2023/04/08 03:39:53;;;;;;;45.28;16.65;;;;;;;7.58;100.00;102310.13;5266644;28;20111;-73
2023/04/08 03:42:24;;;;;;;38.58;16.70;;;;;;;7.57;100.00;102318.22;5265579;28;20020;-73
2023/04/08 03:44:54;;;;;;;43.42;17.00;;;;;;;7.56;100.00;102321.88;5265275;28;20061;-73
2023/04/08 03:47:26;;;;;;;51.53;17.13;;;;;;;7.56;100.00;102320.06;5264669;28;20027;-73
2023/04/08 03:49:56;;;;;;;50.05;18.08;;;;;;;7.56;100.00;102325.41;5266090;28;20070;-73
2023/04/08 03:52:27;;;;;;;46.67;16.75;;;;;;;7.56;100.00;102327.22;5264619;28;20020;-73
2023/04/08 03:54:57;;;;;;;51.50;16.70;;;;;;;7.56;100.00;102329.88;5265750;28;20065;-73
2023/04/08 03:57:28;;;;;;;56.58;18.48;;;;;;;7.57;100.00;102326.25;5265970;28;20103;-72
2023/04/08 03:59:58;;;;;;;56.22;20.08;;;;;;;7.56;100.00;102333.41;5265947;28;20397;-73
2023/04/08 04:02:28;;;;;;;52.90;17.05;;;;;;;7.57;100.00;102331.59;5271145;28;20373;-73
2023/04/08 04:04:59;;;;;;;52.13;18.48;;;;;;;7.57;100.00;102334.25;5266390;28;20028;-73
2023/04/08 04:07:29;;;;;;;47.75;17.75;;;;;;;7.56;100.00;102335.22;5264117;28;20111;-73
2023/04/08 04:10:00;;;;;;;52.85;17.15;;;;;;;7.56;100.00;102335.22;5266043;28;20024;-73
2023/04/08 04:12:30;;;;;;;54.97;18.60;;;;;;;7.57;100.00;102331.59;5266842;28;20020;-73
2023/04/08 04:15:01;;;;;;;54.33;19.65;;;;;;;7.57;100.00;102331.59;5278727;28;20024;-73
2023/04/08 04:17:31;;;;;;;62.35;20.17;;;;;;;7.57;100.00;102336.94;5266141;28;20407;-73
2023/04/08 04:20:05;;;;;;;51.35;18.08;;;;;;;7.58;100.00;102333.28;5265226;28;20024;-73
2023/04/08 04:22:35;;;;;;;49.75;19.58;;;;;;;7.60;100.00;102337.56;5269071;28;20015;-73
2023/04/08 04:25:07;;;;;;;55.53;19.77;;;;;;;7.59;100.00;102343.03;5274495;28;20028;-73
2023/04/08 04:27:37;;;;;;;54.10;18.92;;;;;;;7.56;100.00;102338.75;5277673;28;20114;-73
2023/04/08 04:30:08;;;;;;;48.33;18.15;;;;;;;7.57;100.00;102342.28;5265396;28;20158;-73
2023/04/08 04:32:39;;;;;;;49.55;19.23;;;;;;;7.55;100.00;102342.38;5265320;28;20434;-73
2023/04/08 04:35:10;;;;;;;51.15;18.70;;;;;;;7.58;100.00;102343.97;5265532;28;20035;-73
2023/04/08 04:37:41;;;;;;;57.10;18.48;;;;;;;7.60;100.00;102350.91;5264014;28;20028;-73
2023/04/08 04:40:12;;;;;;;67.97;19.92;;;;;;;7.62;100.00;102343.63;5267088;28;20477;-73
2023/04/08 04:42:42;;;;;;;52.50;19.17;;;;;;;7.59;100.00;102348.38;5276979;28;20050;-73
2023/04/08 04:45:13;;;;;;;47.65;19.25;;;;;;;7.60;100.00;102353.59;5265286;28;20024;-73
2023/04/08 04:47:43;;;;;;;50.10;18.83;;;;;;;7.63;100.00;102353.38;5265074;28;20031;-73
2023/04/08 04:50:14;;;;;;;52.55;19.70;;;;;;;7.61;100.00;102357.97;5265433;28;20118;-73
2023/04/08 04:52:44;;;;;;;48.35;20.10;;;;;;;7.63;100.00;102366.75;5276088;28;20110;-73
2023/04/08 04:55:15;;;;;;;59.63;20.95;;;;;;;7.61;100.00;102360.63;5272216;28;20016;-73
2023/04/08 04:57:45;;;;;;;55.95;18.90;;;;;;;7.59;100.00;102351.03;5265070;28;20028;-73
2023/04/08 05:00:16;;;;;;;55.17;19.63;;;;;;;7.55;100.00;102355.75;5264931;28;20049;-73
2023/04/08 05:02:46;;;;;;;67.40;22.30;;;;;;;7.55;100.00;102361.09;5268536;28;20023;-73
2023/04/08 05:05:17;;;;;;;58.83;22.58;;;;;;;7.55;100.00;102358.41;5268272;28;20035;-73
2023/04/08 05:07:47;;;;;;;64.43;22.10;;;;;;;7.55;100.00;102353.06;5267182;28;20020;-73
2023/04/08 05:10:18;;;;;;;63.88;23.15;;;;;;;7.55;100.00;102349.56;5269175;28;20099;-73
2023/04/08 05:12:48;;;;;;;78.57;23.23;;;;;;;7.52;100.00;102347.94;5269193;28;20043;-73
2023/04/08 05:15:19;;;;;;;72.65;24.60;;;;;;;7.43;100.00;102344.13;5269442;28;20107;-73
2023/04/08 05:17:50;;;;;;;64.97;23.05;;;;;;;7.36;100.00;102345.50;5269133;28;20024;-73
2023/04/08 05:20:20;;;;;;;75.03;24.02;;;;;;;7.27;100.00;102352.34;5268793;28;20073;-73
2023/04/08 05:22:51;;;;;;;74.55;24.15;;;;;;;7.21;100.00;102354.59;5269822;28;20027;-73
2023/04/08 05:25:21;;;;;;;70.25;24.10;;;;;;;7.15;100.00;102357.72;5282660;28;20042;-73
2023/04/08 05:27:52;;;;;;;70.95;24.98;;;;;;;7.14;100.00;102358.69;5281964;28;20080;-73
2023/04/08 05:30:22;;;;;;;68.95;23.52;;;;;;;7.14;100.00;102361.34;5268554;28;20031;-73
2023/04/08 05:32:53;;;;;;;66.05;22.83;;;;;;;7.17;100.00;102363.78;5267178;28;20473;-73
2023/04/08 05:35:23;;;;;;;67.10;23.73;;;;;;;7.19;100.00;102362.72;5268626;28;20030;-73
2023/04/08 05:37:54;;;;;;;80.30;24.70;;;;;;;7.30;100.00;102369.13;5268450;28;20024;-73
2023/04/08 05:40:25;;;;;;;64.90;23.60;;;;;;;7.35;100.00;102372.31;5268428;28;20082;-73
2023/04/08 05:42:56;;;;;;;70.75;24.65;;;;;;;7.36;100.00;102372.22;5279369;28;20480;-73
2023/04/08 05:45:29;;;;;;;58.97;21.95;;;;;;;7.38;100.00;102378.31;5269886;28;20114;-73
2023/04/08 05:47:59;;;;;;;65.38;21.70;;;;;;;7.39;100.00;102382.69;5268128;28;20103;-73
2023/04/08 05:50:30;;;;;;;51.40;20.33;;;;;;;7.44;100.00;102382.38;5268321;28;20539;-73
2023/04/08 05:53:00;;;;;;;66.97;23.35;;;;;;;7.55;100.00;102387.78;5268273;28;20099;-73
2023/04/08 05:55:31;;;;;;;69.53;24.10;;;;;;;7.66;100.00;102382.53;5267200;28;20107;-73
2023/04/08 05:58:01;;;;;;;55.90;22.55;;;;;;;7.77;100.00;102385.28;5267391;28;20020;-73
2023/04/08 06:00:32;;;;;;;62.60;23.20;;;;;;;7.87;100.00;102393.47;5268219;28;20028;-73
2023/04/08 06:03:02;;;;;;;67.30;23.88;;;;;;;7.95;100.00;102401.81;5271926;28;20020;-73
2023/04/08 06:05:33;;;;;;;62.63;23.33;;;;;;;8.01;100.00;102396.00;5269036;28;20038;-73
2023/04/08 06:08:04;;;;;;;65.75;24.25;;;;;;;8.07;100.00;102402.72;5280536;28;20511;-73
2023/04/08 06:10:35;;;;;;;57.50;21.52;;;;;;;8.11;100.00;102401.53;5274948;28;20028;-73
2023/04/08 06:13:05;;;;;;;59.42;23.02;;;;;;;8.16;100.00;102401.22;5266654;28;20020;-73
2023/04/08 06:15:36;;;;;;;66.65;23.10;;;;;;;8.21;100.00;102399.91;5266640;28;20477;-73
2023/04/08 06:18:06;;;;;;;68.03;24.55;;;;;;;8.21;100.00;102410.59;5265450;28;20107;-73
2023/04/08 06:20:37;;;;;;;67.38;21.92;;;;;;;8.21;100.00;102413.25;5266277;28;20084;-73
2023/04/08 06:23:07;;;;;;;64.25;21.52;;;;;;;8.26;100.00;102415.59;5278599;28;20441;-73
2023/04/08 06:25:38;;;;;;;65.30;21.98;;;;;;;8.30;100.00;102417.09;5266529;28;20024;-73
2023/04/08 06:28:08;;;;;;;58.83;20.88;;;;;;;8.38;100.00;102425.41;5266133;28;20023;-73
2023/04/08 06:30:39;;;;;;;64.53;20.40;;;;;;;8.44;100.00;102424.13;5266025;28;20416;-73
2023/04/08 06:33:09;;;;;;;60.20;22.83;;;;;;;8.51;100.00;102425.38;5265697;28;20443;-73
2023/04/08 06:35:40;;;;;;;69.40;22.88;;;;;;;8.57;100.00;102432.94;5266078;28;20032;-73
2023/04/08 06:38:10;;;;;;;67.18;21.83;;;;;;;8.70;100.00;102440.91;5265946;28;20077;-74
2023/04/08 06:40:41;;;;;;;57.33;22.23;;;;;;;8.76;100.00;102435.94;5265736;28;20032;-74
2023/04/08 06:43:11;;;;;;;56.38;20.95;;;;;;;8.79;100.00;102432.19;5266053;28;20024;-74
2023/04/08 06:45:42;;;;;;;60.03;22.40;;;;;;;8.90;100.00;102432.22;5264102;28;20032;-74
2023/04/08 06:48:12;;;;;;;55.92;20.45;;;;;;;8.98;100.00;102434.28;5265947;28;20054;-74
2023/04/08 06:50:43;;;;;;;52.60;20.65;;;;;;;9.09;100.00;102429.00;5266193;28;20032;-74
2023/04/08 06:53:13;;;;;;;58.90;20.92;;;;;;;9.14;100.00;102436.69;5266096;28;20107;-74
2023/04/08 06:55:44;;;;;;;51.15;19.65;;;;;;;9.16;100.00;102432.91;5266235;28;20400;-74
2023/04/08 06:58:14;;;;;;;41.17;18.88;;;;;;;9.28;100.00;102442.63;5268420;28;20022;-74
2023/04/08 07:00:46;;;;;;;45.80;18.13;;;;;;;9.23;100.00;102435.94;5286543;28;20024;-74
2023/04/08 07:03:16;;;;;;;51.67;20.27;;;;;;;9.26;100.00;102438.41;5273671;28;20048;-74
2023/04/08 07:05:47;;;;;;;51.08;20.00;;;;;;;9.18;100.00;102440.81;5271657;28;20071;-74
2023/04/08 07:08:17;;;;;;;56.28;19.90;;;;;;;9.12;100.00;102447.47;5271519;28;20032;-74
2023/04/08 07:10:48;;;;;;;55.83;20.50;;;;;;;9.17;100.00;102456.00;5266182;28;20059;-74
2023/04/08 07:13:19;;;;;;;53.60;19.40;;;;;;;9.18;100.00;102454.19;5274282;28;20015;-74
2023/04/08 07:15:49;;;;;;;56.45;19.80;;;;;;;9.19;100.00;102463.94;5271816;28;20017;-74
2023/04/08 07:18:20;;;;;;;53.67;21.33;;;;;;;9.32;100.00;102457.50;5264842;28;20749;-74
2023/04/08 07:20:52;;;;;;;51.10;21.05;;;;;;;9.34;100.00;102465.44;5267242;28;20476;-74
2023/04/08 07:23:23;;;;;;;49.05;19.55;;;;;;;9.37;100.00;102467.03;5284421;28;20134;-74
2023/04/08 07:25:53;;;;;;;41.03;15.60;;;;;;;9.56;100.00;102470.81;5272645;28;20027;-73
2023/04/08 07:28:24;;;;;;;39.03;14.32;;;;;;;9.56;100.00;102462.78;5273259;28;20031;-74
2023/04/08 07:30:56;;;;;;;35.53;14.82;;;;;;;9.58;100.00;102479.59;5264064;28;20035;-73
2023/04/08 07:33:27;;;;;;;31.10;15.68;;;;;;;9.65;100.00;102479.13;5265272;28;20107;-74
2023/04/08 07:35:58;;;;;;;42.42;17.00;;;;;;;9.73;100.00;102477.53;5278999;28;20118;-74
2023/04/08 07:38:29;;;;;;;41.90;16.80;;;;;;;9.76;100.00;102477.28;5264895;28;20020;-74
2023/04/08 07:40:59;;;;;;;51.17;19.85;;;;;;;9.95;100.00;102474.00;5265231;28;20046;-75
2023/04/08 07:43:31;;;;;;;40.10;17.38;;;;;;;10.03;100.00;102482.28;5278356;28;20031;-74
2023/04/08 07:46:03;;;;;;;44.90;19.42;;;;;;;10.12;100.00;102483.38;5263496;28;20028;-74
2023/04/08 07:48:34;;;;;;;46.55;17.52;;;;;;;10.26;100.00;102483.16;5263509;28;20028;-74
2023/04/08 07:51:06;;;;;;;50.55;20.40;;;;;;;10.28;100.00;102483.00;5264845;28;20543;-74
2023/04/08 07:53:38;;;;;;;55.13;22.85;;;;;;;10.26;100.00;102491.19;5264827;28;20032;-74
2023/04/08 07:56:11;;;;;;;56.53;19.77;;;;;;;10.34;100.00;102487.88;5264996;28;20031;-74
2023/04/08 07:58:42;;;;;;;49.88;20.05;;;;;;;10.41;100.00;102494.47;5264041;28;20073;-74
2023/04/08 08:01:33;;;;;;;47.80;19.85;;;;;;;10.38;100.00;102500.06;5268122;28;20027;-74
2023/04/08 08:04:04;;;;;;;50.03;19.92;;;;;;;10.32;100.00;102495.22;5277052;28;20019;-74
2023/04/08 08:06:34;;;;;;;50.67;21.17;;;;;;;10.22;100.00;102497.75;5264247;28;20540;-74
2023/04/08 08:09:05;;;;;;;64.45;23.45;;;;;;;10.20;100.00;102499.72;5264031;28;20559;-74
2023/04/08 08:11:35;;;;;;;63.20;23.25;;;;;;;10.29;100.00;102508.84;5264517;28;20053;-74
2023/04/08 08:14:06;;;;;;;61.05;24.08;;;;;;;10.37;100.00;102506.41;5278639;28;20012;-74
2023/04/08 08:16:37;;;;;;;66.85;22.95;;;;;;;10.50;100.00;102506.28;5276699;28;20035;-74
2023/04/08 08:19:08;;;;;;;49.03;22.10;;;;;;;10.80;100.00;102513.66;5263422;28;20024;-74
2023/04/08 08:21:38;;;;;;;56.47;21.35;;;;;;;10.93;100.00;102514.31;5263352;28;20100;-74
2023/04/08 08:24:09;;;;;;;49.38;20.10;;;;;;;10.96;100.00;102508.69;5277465;28;20038;-74
2023/04/08 08:26:39;;;;;;;46.17;20.67;;;;;;;11.07;100.00;102511.31;5276719;28;20081;-74
2023/04/08 08:29:10;;;;;;;51.17;21.05;;;;;;;10.98;100.00;102506.72;5264768;28;20101;-74
2023/04/08 08:31:40;;;;;;;47.53;18.88;;;;;;;11.06;100.00;102520.38;5262772;28;20396;-74
2023/04/08 08:34:11;;;;;;;50.03;20.67;;;;;;;11.05;100.00;102524.03;5262379;28;20035;-74
2023/04/08 08:36:41;;;;;;;47.92;21.38;;;;;;;11.02;100.00;102524.28;5264126;28;20161;-74
2023/04/08 08:39:11;;;;;;;58.95;23.38;;;;;;;11.01;100.00;102527.13;5264002;28;20016;-74
2023/04/08 08:41:42;;;;;;;41.42;19.45;;;;;;;11.12;100.00;102525.22;5263973;28;20035;-74
2023/04/08 08:44:13;;;;;;;46.38;20.20;;;;;;;11.11;100.00;102528.03;5263862;28;20035;-74
2023/04/08 08:46:46;;;;;;;50.72;22.05;;;;;;;11.09;100.00;102536.25;5262009;28;20039;-74
2023/04/08 08:49:16;;;;;;;45.88;20.55;;;;;;;11.08;100.00;102534.50;5264128;28;20020;-74
2023/04/08 08:51:49;;;;;;;39.00;17.85;;;;;;;11.21;100.00;102536.19;5268274;28;20110;-74
2023/04/08 08:54:22;;;;;;;39.75;18.35;;;;;;;11.09;100.00;102538.94;5272926;28;20084;-74
2023/04/08 08:56:52;;;;;;;44.50;21.33;;;;;;;11.07;100.00;102537.34;5263489;28;20034;-74
2023/04/08 08:59:23;;;;;;;47.50;22.88;;;;;;;11.19;100.00;102540.81;5262643;28;20375;-74
2023/04/08 09:01:53;;;;;;;41.67;20.13;;;;;;;11.28;100.00;102540.91;5267990;28;20081;-74
2023/04/08 09:04:24;;;;;;;39.08;19.15;;;;;;;11.43;100.00;102537.91;5264852;28;20389;-74
2023/04/08 09:07:13;;;;;;;32.70;17.27;;;;;;;11.44;100.00;102537.75;5263620;28;20099;-74
2023/04/08 09:10:03;;;;;;;35.67;17.45;;;;;;;11.48;100.00;102539.19;5269433;28;20028;-74
2023/04/08 09:12:33;;;;;;;36.95;17.85;;;;;;;11.53;100.00;102544.19;5268856;28;20034;-74
2023/04/08 09:15:22;;;;;;;36.95;16.33;;;;;;;11.72;100.00;102535.41;5273527;28;20019;-74
2023/04/08 09:17:53;;;;;;;34.30;16.00;;;;;;;12.01;100.00;102538.28;5278114;28;20016;-74
2023/04/08 09:20:23;;;;;;;27.50;13.48;;;;;;;12.81;100.00;102527.47;5263986;28;20111;-74
2023/04/08 09:22:55;;;;;;;31.23;13.90;;;;;;;13.87;100.00;102521.13;5269375;28;20068;-74
2023/04/08 09:25:28;;;;;;;27.25;12.77;;;;;;;14.70;100.00;102523.84;5269780;28;20028;-74
2023/04/08 09:27:59;;;;;;;28.33;14.15;;;;;;;15.31;100.00;102516.81;5263833;28;20042;-74
2023/04/08 09:30:31;;;;;;;27.27;13.80;;;;;;;15.31;100.00;102527.63;5263361;28;20531;-74
2023/04/08 09:33:05;;;;;;;27.55;14.98;;;;;;;15.55;100.00;102522.41;5263414;28;20438;-74
2023/04/08 09:35:36;;;;;;;25.13;14.05;;;;;;;15.44;100.00;102528.94;5264247;28;20055;-74
2023/04/08 09:38:07;;;;;;;25.88;14.57;;;;;;;14.88;100.00;102526.59;5263682;28;20503;-74
2023/04/08 09:40:39;;;;;;;23.38;12.93;;;;;;;14.91;100.00;102527.13;5277033;28;20691;-74
2023/04/08 09:43:13;;;;;;;25.20;13.23;;;;;;;14.17;100.00;102528.13;5276177;28;20023;-74
2023/04/08 09:45:45;;;;;;;27.98;14.75;;;;;;;13.71;100.00;102523.59;5283478;28;20051;-74
2023/04/08 09:48:23;;;;;;;29.00;15.05;;;;;;;13.34;100.00;102528.91;5268773;28;20024;-74
2023/04/08 09:50:56;;;;;;;28.08;15.02;;;;;;;13.26;100.00;102532.31;5265301;28;20396;-74
2023/04/08 09:53:47;;;;;;;21.90;11.65;;;;;;;13.61;100.00;102522.78;5266658;28;20016;-74
2023/04/08 09:56:18;;;;;;;27.98;16.27;;;;;;;13.54;100.00;102535.97;5267129;28;20050;-74
2023/04/08 09:58:57;;;;;;;32.97;16.90;;;;;;;13.42;100.00;102527.19;5265611;28;20586;-74
2023/04/08 10:01:39;;;;;;;28.17;16.17;;;;;;;13.59;100.00;102527.44;5266126;28;20114;-74
2023/04/08 10:04:14;;;;;;;26.33;14.82;;;;;;;13.66;100.00;102517.78;5266759;28;20023;-74
2023/04/08 10:06:50;;;;;;;;;;;;;;;13.54;100.00;102527.03;5267117;28;20032;-74
2023/04/08 10:09:21;;;;;;;33.78;17.60;;;;;;;13.78;100.00;102529.25;5266843;28;19908;-75
2023/04/08 10:11:52;;;;;;;34.15;18.23;;;;;;;14.22;100.00;102524.97;5266361;28;20103;-75
2023/04/08 10:14:26;;;;;;;34.08;18.48;;;;;;;14.57;100.00;102521.53;5280579;28;20085;-75
2023/04/08 10:17:35;;;;;;;30.60;16.27;;;;;;;15.05;100.00;102514.06;5278224;28;20036;-74
2023/04/08 10:20:44;;;;;;;36.95;19.30;;;;;;;14.88;100.00;102513.06;5277219;28;20019;-74
2023/04/08 10:23:17;;;;;;;30.27;16.05;;;;;;;14.90;100.00;102527.25;5265917;28;20036;-74
2023/04/08 10:25:48;;;;;;;33.72;17.77;;;;;;;14.84;100.00;102528.72;5266440;28;20380;-74
2023/04/08 10:28:18;;;;;;;35.97;16.58;;;;;;;14.20;100.00;102517.00;5266231;28;20024;-74
2023/04/08 10:30:50;;;;;;;35.53;18.45;;;;;;;14.14;100.00;102519.44;5265742;28;20488;-74
2023/04/08 10:33:30;;;;;;;34.08;17.30;;;;;;;14.29;100.00;102512.56;5265840;28;20027;-74
2023/04/08 10:36:19;;;;;;;30.95;16.75;;;;;;;14.58;100.00;102512.44;5274381;28;20028;-74
2023/04/08 10:38:49;;;;;;;26.65;14.13;;;;;;;14.80;100.00;102513.81;5267640;28;20032;-75
2023/04/08 10:41:23;;;;;;;33.78;17.95;;;;;;;15.08;100.00;102511.06;5276585;28;20120;-74
2023/04/08 10:43:54;;;;;;;39.85;19.92;;;;;;;15.05;100.00;102514.91;5273315;28;20020;-75
2023/04/08 10:46:27;;;;;;;41.65;20.08;;;;;;;15.17;100.00;102512.84;5285724;28;20035;-74
2023/04/08 10:49:00;;;;;;;38.33;19.73;;;;;;;15.02;100.00;102517.94;5266450;28;20036;-74
2023/04/08 10:51:31;;;;;;;31.73;15.57;;;;;;;14.86;100.00;102523.16;5265194;28;20031;-74
2023/04/08 10:54:22;;;;;;;37.47;18.52;;;;;;;14.73;100.00;102518.16;5264702;28;20400;-74
2023/04/08 10:56:53;;;;;;;31.45;16.58;;;;;;;14.63;100.00;102523.63;5265830;28;20530;-74
2023/04/08 10:59:42;;;;;;;36.65;19.30;;;;;;;14.39;100.00;102516.06;5265977;28;20053;-74
2023/04/08 11:02:14;;;;;;;30.50;17.05;;;;;;;14.57;100.00;102518.00;5269528;28;20027;-74
2023/04/08 11:04:46;;;;;;;36.95;18.08;;;;;;;14.76;100.00;102521.41;5264760;28;20028;-74
2023/04/08 11:07:19;;;;;;;28.63;15.90;;;;;;;15.17;100.00;102512.84;5265976;28;20043;-75
2023/04/08 11:09:50;;;;;;;33.22;16.70;;;;;;;15.53;100.00;102506.34;5264177;28;20031;-74
2023/04/08 11:12:21;;;;;;;37.20;17.50;;;;;;;15.35;100.00;102510.09;5277633;28;20028;-74
2023/04/08 11:14:52;;;;;;;36.00;19.20;;;;;;;14.68;100.00;102507.81;5278474;28;20024;-74
2023/04/08 11:17:23;;;;;;;33.97;18.33;;;;;;;14.83;100.00;102510.81;5265628;28;20031;-74
2023/04/08 11:19:53;;;;;;;41.72;20.35;;;;;;;14.53;100.00;102511.19;5273685;28;20023;-75
2023/04/08 11:22:24;;;;;;;39.10;20.17;;;;;;;14.27;100.00;102509.16;5269180;28;20024;-75
2023/04/08 11:24:55;;;;;;;39.75;19.52;;;;;;;14.15;100.00;102511.19;5274596;28;20059;-74
2023/04/08 11:27:26;;;;;;;34.10;17.75;;;;;;;14.23;100.00;102505.06;5271889;27;20024;-74
2023/04/08 11:29:58;;;;;;;41.00;20.60;;;;;;;14.03;100.00;102500.75;5285334;28;20034;-74